sensor_id;sensor_type;location;lat;lon;timestamp;temperature;humidity
3944;DHT22;1986;52.546;13.428;2023-04-25T00:00:53;8.90;99.90
3944;DHT22;1986;52.546;13.428;2023-04-25T00:03:24;8.90;99.90
3944;DHT22;1986;52.546;13.428;2023-04-25T00:05:51;8.90;99.90
3944;DHT22;1986;52.546;13.428;2023-04-25T00:08:18;8.90;99.90
3944;DHT22;1986;52.546;13.428;2023-04-25T00:10:45;9.00;99.90
3944;DHT22;1986;52.546;13.428;2023-04-25T00:13:14;9.00;99.90
3944;DHT22;1986;52.546;13.428;2023-04-25T00:15:43;9.00;99.90
3944;DHT22;1986;52.546;13.428;2023-04-25T00:18:11;9.00;99.90
3944;DHT22;1986;52.546;13.428;2023-04-25T00:20:40;9.00;99.90
3944;DHT22;1986;52.546;13.428;2023-04-25T00:23:12;9.00;99.90
3944;DHT22;1986;52.546;13.428;2023-04-25T00:25:43;9.00;99.90
3944;DHT22;1986;52.546;13.428;2023-04-25T00:28:10;9.00;99.90
3944;DHT22;1986;52.546;13.428;2023-04-25T00:30:37;8.90;99.90
3944;DHT22;1986;52.546;13.428;2023-04-25T00:33:04;8.90;99.90
3944;DHT22;1986;52.546;13.428;2023-04-25T00:35:31;8.90;99.90
3944;DHT22;1986;52.546;13.428;2023-04-25T00:37:59;8.90;99.90
3944;DHT22;1986;52.546;13.428;2023-04-25T00:40:27;8.90;99.90
3944;DHT22;1986;52.546;13.428;2023-04-25T00:42:54;8.90;99.90
3944;DHT22;1986;52.546;13.428;2023-04-25T00:45:21;8.90;99.90
3944;DHT22;1986;52.546;13.428;2023-04-25T00:47:48;8.90;99.90
3944;DHT22;1986;52.546;13.428;2023-04-25T00:50:15;8.90;99.90
3944;DHT22;1986;52.546;13.428;2023-04-25T00:52:44;8.90;99.90
3944;DHT22;1986;52.546;13.428;2023-04-25T00:55:13;8.90;99.90
3944;DHT22;1986;52.546;13.428;2023-04-25T00:57:42;8.90;99.90
3944;DHT22;1986;52.546;13.428;2023-04-25T01:00:10;8.80;99.90
3944;DHT22;1986;52.546;13.428;2023-04-25T01:02:40;8.80;99.90
3944;DHT22;1986;52.546;13.428;2023-04-25T01:05:07;8.80;99.90
3944;DHT22;1986;52.546;13.428;2023-04-25T01:07:35;8.80;99.90
3944;DHT22;1986;52.546;13.428;2023-04-25T01:10:02;8.80;99.90
3944;DHT22;1986;52.546;13.428;2023-04-25T01:12:31;8.80;99.90
3944;DHT22;1986;52.546;13.428;2023-04-25T01:14:59;8.80;99.90
3944;DHT22;1986;52.546;13.428;2023-04-25T01:17:26;8.80;99.90
3944;DHT22;1986;52.546;13.428;2023-04-25T01:19:53;8.80;99.90
3944;DHT22;1986;52.546;13.428;2023-04-25T01:22:22;8.80;99.90
3944;DHT22;1986;52.546;13.428;2023-04-25T01:24:49;8.80;99.90
3944;DHT22;1986;52.546;13.428;2023-04-25T01:27:29;8.80;99.90
3944;DHT22;1986;52.546;13.428;2023-04-25T01:29:56;8.80;99.90
3944;DHT22;1986;52.546;13.428;2023-04-25T01:32:24;8.80;99.90
3944;DHT22;1986;52.546;13.428;2023-04-25T01:34:50;8.80;99.90
3944;DHT22;1986;52.546;13.428;2023-04-25T01:37:17;8.70;99.90
3944;DHT22;1986;52.546;13.428;2023-04-25T01:39:46;8.80;99.90
3944;DHT22;1986;52.546;13.428;2023-04-25T01:42:14;8.70;99.90
3944;DHT22;1986;52.546;13.428;2023-04-25T01:44:41;8.80;99.90
3944;DHT22;1986;52.546;13.428;2023-04-25T01:47:08;8.80;99.90
3944;DHT22;1986;52.546;13.428;2023-04-25T01:49:35;8.70;99.90
3944;DHT22;1986;52.546;13.428;2023-04-25T01:52:02;8.80;99.90
3944;DHT22;1986;52.546;13.428;2023-04-25T01:54:29;8.70;99.90
3944;DHT22;1986;52.546;13.428;2023-04-25T01:56:58;8.70;99.90
3944;DHT22;1986;52.546;13.428;2023-04-25T01:59:25;8.70;99.90
3944;DHT22;1986;52.546;13.428;2023-04-25T02:01:52;8.70;99.90
3944;DHT22;1986;52.546;13.428;2023-04-25T02:04:19;8.80;99.90
3944;DHT22;1986;52.546;13.428;2023-04-25T02:06:46;8.80;99.90
3944;DHT22;1986;52.546;13.428;2023-04-25T02:09:13;8.80;99.90
3944;DHT22;1986;52.546;13.428;2023-04-25T02:11:40;8.80;99.90
3944;DHT22;1986;52.546;13.428;2023-04-25T02:14:08;8.80;99.90
3944;DHT22;1986;52.546;13.428;2023-04-25T02:16:35;8.80;99.90
3944;DHT22;1986;52.546;13.428;2023-04-25T02:19:02;8.80;99.90
3944;DHT22;1986;52.546;13.428;2023-04-25T02:21:29;8.80;99.90
3944;DHT22;1986;52.546;13.428;2023-04-25T02:23:57;8.80;99.90
3944;DHT22;1986;52.546;13.428;2023-04-25T02:26:24;8.70;99.90
3944;DHT22;1986;52.546;13.428;2023-04-25T02:28:51;8.60;99.90
3944;DHT22;1986;52.546;13.428;2023-04-25T02:31:20;8.60;99.90
3944;DHT22;1986;52.546;13.428;2023-04-25T02:33:48;8.60;99.90
3944;DHT22;1986;52.546;13.428;2023-04-25T02:36:17;8.60;99.90
3944;DHT22;1986;52.546;13.428;2023-04-25T02:38:44;8.60;99.90
3944;DHT22;1986;52.546;13.428;2023-04-25T02:41:11;8.60;99.90
3944;DHT22;1986;52.546;13.428;2023-04-25T02:43:38;8.60;99.90
3944;DHT22;1986;52.546;13.428;2023-04-25T02:46:06;8.60;99.90
3944;DHT22;1986;52.546;13.428;2023-04-25T02:48:34;8.60;99.90
3944;DHT22;1986;52.546;13.428;2023-04-25T02:51:03;8.50;99.90
3944;DHT22;1986;52.546;13.428;2023-04-25T02:53:30;8.60;99.90
3944;DHT22;1986;52.546;13.428;2023-04-25T02:55:57;8.60;99.90
3944;DHT22;1986;52.546;13.428;2023-04-25T02:58:24;8.60;99.90
3944;DHT22;1986;52.546;13.428;2023-04-25T03:00:51;8.60;99.90
3944;DHT22;1986;52.546;13.428;2023-04-25T03:03:18;8.60;99.90
3944;DHT22;1986;52.546;13.428;2023-04-25T03:05:48;8.60;99.90
3944;DHT22;1986;52.546;13.428;2023-04-25T03:08:16;8.50;99.90
3944;DHT22;1986;52.546;13.428;2023-04-25T03:10:43;8.50;99.90
3944;DHT22;1986;52.546;13.428;2023-04-25T03:13:10;8.50;99.90
3944;DHT22;1986;52.546;13.428;2023-04-25T03:15:39;8.50;99.90
3944;DHT22;1986;52.546;13.428;2023-04-25T03:18:18;8.50;99.90
3944;DHT22;1986;52.546;13.428;2023-04-25T03:20:45;8.50;99.90
3944;DHT22;1986;52.546;13.428;2023-04-25T03:23:13;8.50;99.90
3944;DHT22;1986;52.546;13.428;2023-04-25T03:25:40;8.50;99.90
3944;DHT22;1986;52.546;13.428;2023-04-25T03:28:07;8.50;99.90
3944;DHT22;1986;52.546;13.428;2023-04-25T03:30:34;8.60;99.90
3944;DHT22;1986;52.546;13.428;2023-04-25T03:33:01;8.60;99.90
3944;DHT22;1986;52.546;13.428;2023-04-25T03:35:28;8.60;99.90
3944;DHT22;1986;52.546;13.428;2023-04-25T03:37:55;8.50;99.90
3944;DHT22;1986;52.546;13.428;2023-04-25T03:40:24;8.50;99.90
3944;DHT22;1986;52.546;13.428;2023-04-25T03:42:51;8.50;99.90
3944;DHT22;1986;52.546;13.428;2023-04-25T03:45:18;8.50;99.90
3944;DHT22;1986;52.546;13.428;2023-04-25T03:47:45;8.40;99.90
3944;DHT22;1986;52.546;13.428;2023-04-25T03:50:26;8.40;99.90
3944;DHT22;1986;52.546;13.428;2023-04-25T03:52:53;8.40;99.90
3944;DHT22;1986;52.546;13.428;2023-04-25T03:55:20;8.40;99.90
3944;DHT22;1986;52.546;13.428;2023-04-25T03:57:50;8.40;99.90
3944;DHT22;1986;52.546;13.428;2023-04-25T04:00:17;8.40;99.90
3944;DHT22;1986;52.546;13.428;2023-04-25T04:02:44;8.40;99.90
3944;DHT22;1986;52.546;13.428;2023-04-25T04:05:12;8.50;99.90
3944;DHT22;1986;52.546;13.428;2023-04-25T04:07:39;8.40;99.90
3944;DHT22;1986;52.546;13.428;2023-04-25T04:10:08;8.40;99.90
3944;DHT22;1986;52.546;13.428;2023-04-25T04:12:35;8.40;99.90
3944;DHT22;1986;52.546;13.428;2023-04-25T04:15:05;8.40;99.90
3944;DHT22;1986;52.546;13.428;2023-04-25T04:17:32;8.40;99.90
3944;DHT22;1986;52.546;13.428;2023-04-25T04:20:01;8.40;99.90
3944;DHT22;1986;52.546;13.428;2023-04-25T04:22:29;8.50;99.90
3944;DHT22;1986;52.546;13.428;2023-04-25T04:24:56;8.50;99.90
3944;DHT22;1986;52.546;13.428;2023-04-25T04:27:24;8.50;99.90
3944;DHT22;1986;52.546;13.428;2023-04-25T04:29:50;8.50;99.90
3944;DHT22;1986;52.546;13.428;2023-04-25T04:32:20;8.50;99.90
3944;DHT22;1986;52.546;13.428;2023-04-25T04:34:48;8.40;99.90
3944;DHT22;1986;52.546;13.428;2023-04-25T04:37:17;8.50;99.90
3944;DHT22;1986;52.546;13.428;2023-04-25T04:39:45;8.50;99.90
3944;DHT22;1986;52.546;13.428;2023-04-25T04:42:12;8.50;99.90
3944;DHT22;1986;52.546;13.428;2023-04-25T04:44:40;8.50;99.90
3944;DHT22;1986;52.546;13.428;2023-04-25T04:47:07;8.50;99.90
3944;DHT22;1986;52.546;13.428;2023-04-25T04:49:37;8.50;99.90
3944;DHT22;1986;52.546;13.428;2023-04-25T04:52:06;8.50;99.90
3944;DHT22;1986;52.546;13.428;2023-04-25T04:54:37;8.60;99.90
3944;DHT22;1986;52.546;13.428;2023-04-25T04:57:20;8.60;99.90
3944;DHT22;1986;52.546;13.428;2023-04-25T04:59:47;8.70;99.90
3944;DHT22;1986;52.546;13.428;2023-04-25T05:02:15;8.70;99.90
3944;DHT22;1986;52.546;13.428;2023-04-25T05:04:44;8.60;99.90
3944;DHT22;1986;52.546;13.428;2023-04-25T05:07:14;8.50;99.90
3944;DHT22;1986;52.546;13.428;2023-04-25T05:09:56;8.60;99.90
3944;DHT22;1986;52.546;13.428;2023-04-25T05:12:23;8.70;99.90
3944;DHT22;1986;52.546;13.428;2023-04-25T05:14:51;8.60;99.90
3944;DHT22;1986;52.546;13.428;2023-04-25T05:17:18;8.50;99.90
3944;DHT22;1986;52.546;13.428;2023-04-25T05:19:50;8.60;99.90
3944;DHT22;1986;52.546;13.428;2023-04-25T05:22:18;8.60;99.90
3944;DHT22;1986;52.546;13.428;2023-04-25T05:24:46;8.70;99.90
3944;DHT22;1986;52.546;13.428;2023-04-25T05:27:15;8.70;99.90
3944;DHT22;1986;52.546;13.428;2023-04-25T05:29:43;8.70;99.90
3944;DHT22;1986;52.546;13.428;2023-04-25T05:32:10;8.60;99.90
3944;DHT22;1986;52.546;13.428;2023-04-25T05:34:37;8.70;99.90
3944;DHT22;1986;52.546;13.428;2023-04-25T05:37:05;8.60;99.90
3944;DHT22;1986;52.546;13.428;2023-04-25T05:39:33;8.60;99.90
3944;DHT22;1986;52.546;13.428;2023-04-25T05:41:59;8.60;99.90
3944;DHT22;1986;52.546;13.428;2023-04-25T05:44:27;8.60;99.90
3944;DHT22;1986;52.546;13.428;2023-04-25T05:46:54;8.60;99.90
3944;DHT22;1986;52.546;13.428;2023-04-25T05:49:21;8.70;99.90
3944;DHT22;1986;52.546;13.428;2023-04-25T05:51:50;8.70;99.90
3944;DHT22;1986;52.546;13.428;2023-04-25T05:54:18;8.60;99.90
3944;DHT22;1986;52.546;13.428;2023-04-25T05:56:45;8.50;99.90
3944;DHT22;1986;52.546;13.428;2023-04-25T05:59:13;8.60;99.90
3944;DHT22;1986;52.546;13.428;2023-04-25T06:01:40;8.60;99.90
3944;DHT22;1986;52.546;13.428;2023-04-25T06:04:08;8.60;99.90
3944;DHT22;1986;52.546;13.428;2023-04-25T06:06:35;8.70;99.90
3944;DHT22;1986;52.546;13.428;2023-04-25T06:09:03;8.80;99.90
3944;DHT22;1986;52.546;13.428;2023-04-25T06:11:32;8.80;99.90
3944;DHT22;1986;52.546;13.428;2023-04-25T06:14:00;8.70;99.90
3944;DHT22;1986;52.546;13.428;2023-04-25T06:16:27;8.60;99.90
3944;DHT22;1986;52.546;13.428;2023-04-25T06:18:54;8.60;99.90
3944;DHT22;1986;52.546;13.428;2023-04-25T06:21:21;8.80;99.90
3944;DHT22;1986;52.546;13.428;2023-04-25T06:23:48;8.80;99.90
3944;DHT22;1986;52.546;13.428;2023-04-25T06:26:14;8.90;99.90
3944;DHT22;1986;52.546;13.428;2023-04-25T06:28:43;8.70;99.90
3944;DHT22;1986;52.546;13.428;2023-04-25T06:31:10;8.70;99.90
3944;DHT22;1986;52.546;13.428;2023-04-25T06:33:37;8.70;99.90
3944;DHT22;1986;52.546;13.428;2023-04-25T06:36:04;8.60;99.90
3944;DHT22;1986;52.546;13.428;2023-04-25T06:38:31;8.60;99.90
3944;DHT22;1986;52.546;13.428;2023-04-25T06:40:58;8.60;99.90
3944;DHT22;1986;52.546;13.428;2023-04-25T06:43:25;8.70;99.90
3944;DHT22;1986;52.546;13.428;2023-04-25T06:45:54;8.60;99.90
3944;DHT22;1986;52.546;13.428;2023-04-25T06:48:24;8.60;99.90
3944;DHT22;1986;52.546;13.428;2023-04-25T06:50:50;8.60;99.90
3944;DHT22;1986;52.546;13.428;2023-04-25T06:53:17;8.60;99.90
3944;DHT22;1986;52.546;13.428;2023-04-25T06:55:45;8.60;99.90
3944;DHT22;1986;52.546;13.428;2023-04-25T06:58:12;8.70;99.90
3944;DHT22;1986;52.546;13.428;2023-04-25T07:00:38;8.60;99.90
3944;DHT22;1986;52.546;13.428;2023-04-25T07:03:07;8.60;99.90
3944;DHT22;1986;52.546;13.428;2023-04-25T07:05:34;8.60;99.90
3944;DHT22;1986;52.546;13.428;2023-04-25T07:08:00;8.60;99.90
3944;DHT22;1986;52.546;13.428;2023-04-25T07:10:28;8.70;99.90
3944;DHT22;1986;52.546;13.428;2023-04-25T07:12:55;8.70;99.90
3944;DHT22;1986;52.546;13.428;2023-04-25T07:15:22;8.80;99.90
3944;DHT22;1986;52.546;13.428;2023-04-25T07:17:49;8.70;99.90
3944;DHT22;1986;52.546;13.428;2023-04-25T07:20:18;8.70;99.90
3944;DHT22;1986;52.546;13.428;2023-04-25T07:22:45;8.70;99.90
3944;DHT22;1986;52.546;13.428;2023-04-25T07:25:12;8.50;99.90
3944;DHT22;1986;52.546;13.428;2023-04-25T07:27:39;8.40;99.90
3944;DHT22;1986;52.546;13.428;2023-04-25T07:30:07;8.40;99.90
3944;DHT22;1986;52.546;13.428;2023-04-25T07:32:34;8.50;99.90
3944;DHT22;1986;52.546;13.428;2023-04-25T07:35:01;8.50;99.90
3944;DHT22;1986;52.546;13.428;2023-04-25T07:37:30;8.70;99.90
3944;DHT22;1986;52.546;13.428;2023-04-25T07:39:57;8.70;99.90
3944;DHT22;1986;52.546;13.428;2023-04-25T07:42:24;8.80;99.90
3944;DHT22;1986;52.546;13.428;2023-04-25T07:44:51;8.90;99.90
3944;DHT22;1986;52.546;13.428;2023-04-25T07:47:18;8.70;99.90
3944;DHT22;1986;52.546;13.428;2023-04-25T07:49:45;8.80;99.90
3944;DHT22;1986;52.546;13.428;2023-04-25T07:52:12;8.90;99.90
3944;DHT22;1986;52.546;13.428;2023-04-25T07:54:41;8.80;99.90
3944;DHT22;1986;52.546;13.428;2023-04-25T07:57:08;8.80;99.90
3944;DHT22;1986;52.546;13.428;2023-04-25T07:59:35;8.80;99.90
3944;DHT22;1986;52.546;13.428;2023-04-25T08:02:01;8.70;99.90
3944;DHT22;1986;52.546;13.428;2023-04-25T08:04:29;8.80;99.90
3944;DHT22;1986;52.546;13.428;2023-04-25T08:06:56;8.80;99.90
3944;DHT22;1986;52.546;13.428;2023-04-25T08:09:23;8.90;99.90
3944;DHT22;1986;52.546;13.428;2023-04-25T08:11:51;9.00;99.90
3944;DHT22;1986;52.546;13.428;2023-04-25T08:14:18;9.10;99.90
3944;DHT22;1986;52.546;13.428;2023-04-25T08:16:45;9.10;99.90
3944;DHT22;1986;52.546;13.428;2023-04-25T08:19:13;9.00;99.90
3944;DHT22;1986;52.546;13.428;2023-04-25T08:21:39;8.90;99.90
3944;DHT22;1986;52.546;13.428;2023-04-25T08:24:07;9.00;99.90
3944;DHT22;1986;52.546;13.428;2023-04-25T08:26:34;9.10;99.90
3944;DHT22;1986;52.546;13.428;2023-04-25T08:29:04;9.20;99.90
3944;DHT22;1986;52.546;13.428;2023-04-25T08:31:31;9.30;99.90
3944;DHT22;1986;52.546;13.428;2023-04-25T08:33:58;9.30;99.90
3944;DHT22;1986;52.546;13.428;2023-04-25T08:36:25;9.40;99.90
3944;DHT22;1986;52.546;13.428;2023-04-25T08:38:53;9.50;99.90
3944;DHT22;1986;52.546;13.428;2023-04-25T08:41:21;9.40;99.90
3944;DHT22;1986;52.546;13.428;2023-04-25T08:43:48;9.50;99.90
3944;DHT22;1986;52.546;13.428;2023-04-25T08:46:18;9.30;99.90
3944;DHT22;1986;52.546;13.428;2023-04-25T08:48:45;9.30;99.90
3944;DHT22;1986;52.546;13.428;2023-04-25T08:51:17;9.40;99.90
3944;DHT22;1986;52.546;13.428;2023-04-25T08:53:49;9.40;99.90
3944;DHT22;1986;52.546;13.428;2023-04-25T08:56:17;9.30;99.90
3944;DHT22;1986;52.546;13.428;2023-04-25T08:58:48;9.40;99.90
3944;DHT22;1986;52.546;13.428;2023-04-25T09:01:17;9.50;99.90
3944;DHT22;1986;52.546;13.428;2023-04-25T09:03:45;9.80;99.90
3944;DHT22;1986;52.546;13.428;2023-04-25T09:06:12;10.20;99.90
3944;DHT22;1986;52.546;13.428;2023-04-25T09:08:41;10.20;99.90
3944;DHT22;1986;52.546;13.428;2023-04-25T09:11:08;10.20;99.90
3944;DHT22;1986;52.546;13.428;2023-04-25T09:13:36;10.20;99.90
3944;DHT22;1986;52.546;13.428;2023-04-25T09:16:02;10.30;99.90
3944;DHT22;1986;52.546;13.428;2023-04-25T09:18:32;10.10;99.90
3944;DHT22;1986;52.546;13.428;2023-04-25T09:21:06;10.10;99.90
3944;DHT22;1986;52.546;13.428;2023-04-25T09:23:39;10.10;99.90
3944;DHT22;1986;52.546;13.428;2023-04-25T09:26:07;10.20;99.90
3944;DHT22;1986;52.546;13.428;2023-04-25T09:28:34;10.20;99.90
3944;DHT22;1986;52.546;13.428;2023-04-25T09:31:03;10.20;99.90
3944;DHT22;1986;52.546;13.428;2023-04-25T09:33:32;10.50;99.90
3944;DHT22;1986;52.546;13.428;2023-04-25T09:36:05;10.80;99.70
3944;DHT22;1986;52.546;13.428;2023-04-25T09:38:40;10.50;99.50
3944;DHT22;1986;52.546;13.428;2023-04-25T09:41:07;10.80;99.20
3944;DHT22;1986;52.546;13.428;2023-04-25T09:43:34;10.60;99.20
3944;DHT22;1986;52.546;13.428;2023-04-25T09:46:01;10.60;99.50
3944;DHT22;1986;52.546;13.428;2023-04-25T09:48:29;10.40;97.70
3944;DHT22;1986;52.546;13.428;2023-04-25T09:51:09;10.30;95.90
3944;DHT22;1986;52.546;13.428;2023-04-25T09:53:38;10.50;94.90
3944;DHT22;1986;52.546;13.428;2023-04-25T09:56:07;10.50;94.50
3944;DHT22;1986;52.546;13.428;2023-04-25T09:58:35;10.50;94.00
3944;DHT22;1986;52.546;13.428;2023-04-25T10:01:05;10.50;93.40
3944;DHT22;1986;52.546;13.428;2023-04-25T10:03:34;10.50;93.30
3944;DHT22;1986;52.546;13.428;2023-04-25T10:06:02;10.70;93.20
3944;DHT22;1986;52.546;13.428;2023-04-25T10:08:32;11.00;92.90
3944;DHT22;1986;52.546;13.428;2023-04-25T10:11:01;11.50;92.20
3944;DHT22;1986;52.546;13.428;2023-04-25T10:13:29;11.30;89.50
3944;DHT22;1986;52.546;13.428;2023-04-25T10:15:57;11.20;89.60
3944;DHT22;1986;52.546;13.428;2023-04-25T10:18:25;11.00;90.00
3944;DHT22;1986;52.546;13.428;2023-04-25T10:20:54;10.80;90.20
3944;DHT22;1986;52.546;13.428;2023-04-25T10:23:21;10.70;90.80
3944;DHT22;1986;52.546;13.428;2023-04-25T10:25:51;10.80;90.30
3944;DHT22;1986;52.546;13.428;2023-04-25T10:28:19;10.90;89.60
3944;DHT22;1986;52.546;13.428;2023-04-25T10:30:59;10.70;88.50
3944;DHT22;1986;52.546;13.428;2023-04-25T10:33:33;10.70;89.10
3944;DHT22;1986;52.546;13.428;2023-04-25T10:36:09;10.80;89.40
3944;DHT22;1986;52.546;13.428;2023-04-25T10:38:36;10.80;89.10
3944;DHT22;1986;52.546;13.428;2023-04-25T10:41:06;10.60;88.40
3944;DHT22;1986;52.546;13.428;2023-04-25T10:43:36;10.50;88.30
3944;DHT22;1986;52.546;13.428;2023-04-25T10:46:13;10.40;88.10
3944;DHT22;1986;52.546;13.428;2023-04-25T10:48:46;10.40;87.90
3944;DHT22;1986;52.546;13.428;2023-04-25T10:51:17;10.60;88.80
3944;DHT22;1986;52.546;13.428;2023-04-25T10:53:45;10.70;88.10
3944;DHT22;1986;52.546;13.428;2023-04-25T10:56:17;10.60;86.10
3944;DHT22;1986;52.546;13.428;2023-04-25T10:58:46;10.40;83.70
3944;DHT22;1986;52.546;13.428;2023-04-25T11:01:13;10.50;83.00
3944;DHT22;1986;52.546;13.428;2023-04-25T11:03:42;10.80;81.40
3944;DHT22;1986;52.546;13.428;2023-04-25T11:06:19;10.80;79.60
3944;DHT22;1986;52.546;13.428;2023-04-25T11:08:49;10.60;80.00
3944;DHT22;1986;52.546;13.428;2023-04-25T11:11:18;10.50;80.90
3944;DHT22;1986;52.546;13.428;2023-04-25T11:13:48;10.60;81.50
3944;DHT22;1986;52.546;13.428;2023-04-25T11:16:16;10.30;81.60
3944;DHT22;1986;52.546;13.428;2023-04-25T11:18:43;10.30;83.20
3944;DHT22;1986;52.546;13.428;2023-04-25T11:21:10;9.90;85.50
3944;DHT22;1986;52.546;13.428;2023-04-25T11:23:37;9.90;86.50
3944;DHT22;1986;52.546;13.428;2023-04-25T11:26:04;9.90;87.60
3944;DHT22;1986;52.546;13.428;2023-04-25T11:28:35;9.90;86.30
3944;DHT22;1986;52.546;13.428;2023-04-25T11:31:03;9.70;85.10
3944;DHT22;1986;52.546;13.428;2023-04-25T11:33:30;9.70;85.60
3944;DHT22;1986;52.546;13.428;2023-04-25T11:35:58;9.90;86.10
3944;DHT22;1986;52.546;13.428;2023-04-25T11:38:25;9.80;82.60
3944;DHT22;1986;52.546;13.428;2023-04-25T11:40:52;10.00;80.80
3944;DHT22;1986;52.546;13.428;2023-04-25T11:43:21;9.90;80.80
3944;DHT22;1986;52.546;13.428;2023-04-25T11:45:50;10.10;80.10
3944;DHT22;1986;52.546;13.428;2023-04-25T11:48:18;10.20;78.60
3944;DHT22;1986;52.546;13.428;2023-04-25T11:50:45;10.30;79.00
3944;DHT22;1986;52.546;13.428;2023-04-25T11:53:13;10.30;78.50
3944;DHT22;1986;52.546;13.428;2023-04-25T11:55:40;10.30;77.90
3944;DHT22;1986;52.546;13.428;2023-04-25T11:58:07;10.30;76.80
3944;DHT22;1986;52.546;13.428;2023-04-25T12:00:35;10.40;76.20
3944;DHT22;1986;52.546;13.428;2023-04-25T12:03:03;10.40;76.50
3944;DHT22;1986;52.546;13.428;2023-04-25T12:05:31;10.40;77.60
3944;DHT22;1986;52.546;13.428;2023-04-25T12:08:09;10.30;78.10
3944;DHT22;1986;52.546;13.428;2023-04-25T12:10:38;10.80;78.40
3944;DHT22;1986;52.546;13.428;2023-04-25T12:13:19;10.60;77.60
3944;DHT22;1986;52.546;13.428;2023-04-25T12:15:46;10.70;79.00
3944;DHT22;1986;52.546;13.428;2023-04-25T12:18:14;10.50;78.00
3944;DHT22;1986;52.546;13.428;2023-04-25T12:20:41;10.40;78.60
3944;DHT22;1986;52.546;13.428;2023-04-25T12:23:09;10.30;78.90
3944;DHT22;1986;52.546;13.428;2023-04-25T12:25:38;10.20;78.80
3944;DHT22;1986;52.546;13.428;2023-04-25T12:28:13;10.30;78.70
3944;DHT22;1986;52.546;13.428;2023-04-25T12:30:58;10.30;78.30
3944;DHT22;1986;52.546;13.428;2023-04-25T12:33:29;10.40;77.70
3944;DHT22;1986;52.546;13.428;2023-04-25T12:35:57;10.30;74.40
3944;DHT22;1986;52.546;13.428;2023-04-25T12:38:25;10.40;75.60
3944;DHT22;1986;52.546;13.428;2023-04-25T12:40:52;10.50;72.80
3944;DHT22;1986;52.546;13.428;2023-04-25T12:43:20;10.40;71.00
3944;DHT22;1986;52.546;13.428;2023-04-25T12:45:51;10.50;72.20
3944;DHT22;1986;52.546;13.428;2023-04-25T12:48:18;10.40;72.30
3944;DHT22;1986;52.546;13.428;2023-04-25T12:50:47;10.60;73.50
3944;DHT22;1986;52.546;13.428;2023-04-25T12:53:15;10.40;72.60
3944;DHT22;1986;52.546;13.428;2023-04-25T12:55:42;10.50;73.00
3944;DHT22;1986;52.546;13.428;2023-04-25T12:58:11;10.40;73.30
3944;DHT22;1986;52.546;13.428;2023-04-25T13:00:38;10.30;73.70
3944;DHT22;1986;52.546;13.428;2023-04-25T13:03:05;10.50;74.60
3944;DHT22;1986;52.546;13.428;2023-04-25T13:05:32;10.40;74.40
3944;DHT22;1986;52.546;13.428;2023-04-25T13:08:00;10.60;71.30
3944;DHT22;1986;52.546;13.428;2023-04-25T13:10:27;10.30;68.00
3944;DHT22;1986;52.546;13.428;2023-04-25T13:12:54;10.40;67.30
3944;DHT22;1986;52.546;13.428;2023-04-25T13:15:21;10.70;67.80
3944;DHT22;1986;52.546;13.428;2023-04-25T13:17:48;10.70;65.80
3944;DHT22;1986;52.546;13.428;2023-04-25T13:20:15;10.70;66.70
3944;DHT22;1986;52.546;13.428;2023-04-25T13:22:44;10.70;67.30
3944;DHT22;1986;52.546;13.428;2023-04-25T13:25:13;10.70;68.10
3944;DHT22;1986;52.546;13.428;2023-04-25T13:27:40;10.80;69.30
3944;DHT22;1986;52.546;13.428;2023-04-25T13:30:10;10.70;69.10
3944;DHT22;1986;52.546;13.428;2023-04-25T13:32:37;10.70;69.20
3944;DHT22;1986;52.546;13.428;2023-04-25T13:35:05;10.40;71.10
3944;DHT22;1986;52.546;13.428;2023-04-25T13:37:33;10.50;72.40
3944;DHT22;1986;52.546;13.428;2023-04-25T13:40:07;10.70;73.80
3944;DHT22;1986;52.546;13.428;2023-04-25T13:42:37;10.30;74.10
3944;DHT22;1986;52.546;13.428;2023-04-25T13:45:05;10.10;76.40
3944;DHT22;1986;52.546;13.428;2023-04-25T13:47:32;10.10;76.90
3944;DHT22;1986;52.546;13.428;2023-04-25T13:49:59;10.10;78.40
3944;DHT22;1986;52.546;13.428;2023-04-25T13:52:28;10.00;79.50
3944;DHT22;1986;52.546;13.428;2023-04-25T13:54:55;10.00;80.70
3944;DHT22;1986;52.546;13.428;2023-04-25T13:57:22;9.90;82.00
3944;DHT22;1986;52.546;13.428;2023-04-25T13:59:50;10.20;80.80
3944;DHT22;1986;52.546;13.428;2023-04-25T14:02:18;10.70;80.70
3944;DHT22;1986;52.546;13.428;2023-04-25T14:04:45;10.90;78.90
3944;DHT22;1986;52.546;13.428;2023-04-25T14:07:12;11.10;78.30
3944;DHT22;1986;52.546;13.428;2023-04-25T14:09:41;11.00;76.90
3944;DHT22;1986;52.546;13.428;2023-04-25T14:12:08;10.90;77.80
3944;DHT22;1986;52.546;13.428;2023-04-25T14:14:35;10.70;77.40
3944;DHT22;1986;52.546;13.428;2023-04-25T14:17:04;10.50;77.40
3944;DHT22;1986;52.546;13.428;2023-04-25T14:19:32;10.50;78.50
3944;DHT22;1986;52.546;13.428;2023-04-25T14:21:59;10.50;78.40
3944;DHT22;1986;52.546;13.428;2023-04-25T14:24:26;10.40;77.90
3944;DHT22;1986;52.546;13.428;2023-04-25T14:26:53;10.50;78.90
3944;DHT22;1986;52.546;13.428;2023-04-25T14:29:20;10.30;75.20
3944;DHT22;1986;52.546;13.428;2023-04-25T14:31:47;10.10;75.90
3944;DHT22;1986;52.546;13.428;2023-04-25T14:34:16;10.10;76.10
3944;DHT22;1986;52.546;13.428;2023-04-25T14:36:43;9.90;76.90
3944;DHT22;1986;52.546;13.428;2023-04-25T14:39:10;10.10;76.10
3944;DHT22;1986;52.546;13.428;2023-04-25T14:41:38;10.00;77.20
3944;DHT22;1986;52.546;13.428;2023-04-25T14:44:08;10.00;78.00
3944;DHT22;1986;52.546;13.428;2023-04-25T14:46:36;10.20;78.70
3944;DHT22;1986;52.546;13.428;2023-04-25T14:49:08;10.20;79.80
3944;DHT22;1986;52.546;13.428;2023-04-25T14:51:38;10.40;80.30
3944;DHT22;1986;52.546;13.428;2023-04-25T14:54:17;10.10;81.30
3944;DHT22;1986;52.546;13.428;2023-04-25T14:56:44;10.10;82.60
3944;DHT22;1986;52.546;13.428;2023-04-25T14:59:13;10.20;83.00
3944;DHT22;1986;52.546;13.428;2023-04-25T15:01:45;9.90;85.00
3944;DHT22;1986;52.546;13.428;2023-04-25T15:04:13;9.90;86.90
3944;DHT22;1986;52.546;13.428;2023-04-25T15:06:51;9.80;90.00
3944;DHT22;1986;52.546;13.428;2023-04-25T15:09:20;9.60;93.00
3944;DHT22;1986;52.546;13.428;2023-04-25T15:11:54;9.50;94.00
3944;DHT22;1986;52.546;13.428;2023-04-25T15:14:21;9.40;94.20
3944;DHT22;1986;52.546;13.428;2023-04-25T15:16:53;9.40;94.10
3944;DHT22;1986;52.546;13.428;2023-04-25T15:19:20;9.50;94.40
3944;DHT22;1986;52.546;13.428;2023-04-25T15:21:51;9.60;94.10
3944;DHT22;1986;52.546;13.428;2023-04-25T15:24:35;9.60;93.50
3944;DHT22;1986;52.546;13.428;2023-04-25T15:27:04;9.60;93.40
3944;DHT22;1986;52.546;13.428;2023-04-25T15:29:31;9.60;92.60
3944;DHT22;1986;52.546;13.428;2023-04-25T15:31:58;9.70;91.00
3944;DHT22;1986;52.546;13.428;2023-04-25T15:34:25;9.70;90.40
3944;DHT22;1986;52.546;13.428;2023-04-25T15:36:54;9.90;89.70
3944;DHT22;1986;52.546;13.428;2023-04-25T15:39:21;9.90;88.30
3944;DHT22;1986;52.546;13.428;2023-04-25T15:41:56;10.00;86.20
3944;DHT22;1986;52.546;13.428;2023-04-25T15:44:23;10.10;83.80
3944;DHT22;1986;52.546;13.428;2023-04-25T15:46:51;10.10;84.20
3944;DHT22;1986;52.546;13.428;2023-04-25T15:49:19;10.20;83.30
3944;DHT22;1986;52.546;13.428;2023-04-25T15:51:47;10.20;82.70
3944;DHT22;1986;52.546;13.428;2023-04-25T15:54:17;10.10;83.30
3944;DHT22;1986;52.546;13.428;2023-04-25T15:56:46;10.00;83.50
3944;DHT22;1986;52.546;13.428;2023-04-25T15:59:16;10.00;85.00
3944;DHT22;1986;52.546;13.428;2023-04-25T16:01:45;9.90;86.50